sensor_id;sensor_type;location;lat;lon;timestamp;P1;durP1;ratioP1;P2;durP2;ratioP2
41323;SDS011;27073;51.128;4.220;2023-03-11T00:00:50;8.68;;;3.53;;
41323;SDS011;27073;51.128;4.220;2023-03-11T00:03:16;8.98;;;3.17;;
41323;SDS011;27073;51.128;4.220;2023-03-11T00:05:44;11.45;;;3.80;;
41323;SDS011;27073;51.128;4.220;2023-03-11T00:08:12;8.55;;;3.50;;
41323;SDS011;27073;51.128;4.220;2023-03-11T00:10:41;11.43;;;3.78;;
41323;SDS011;27073;51.128;4.220;2023-03-11T00:13:08;8.68;;;3.95;;
41323;SDS011;27073;51.128;4.220;2023-03-11T00:15:36;9.45;;;3.67;;
41323;SDS011;27073;51.128;4.220;2023-03-11T00:18:03;11.70;;;4.53;;
41323;SDS011;27073;51.128;4.220;2023-03-11T00:20:33;10.68;;;3.47;;
41323;SDS011;27073;51.128;4.220;2023-03-11T00:23:02;11.27;;;3.78;;
41323;SDS011;27073;51.128;4.220;2023-03-11T00:25:29;11.63;;;4.03;;
41323;SDS011;27073;51.128;4.220;2023-03-11T00:27:56;10.77;;;3.33;;
41323;SDS011;27073;51.128;4.220;2023-03-11T00:30:22;10.63;;;3.17;;
41323;SDS011;27073;51.128;4.220;2023-03-11T00:32:51;8.57;;;4.32;;
41323;SDS011;27073;51.128;4.220;2023-03-11T00:35:20;14.40;;;4.00;;
41323;SDS011;27073;51.128;4.220;2023-03-11T00:37:51;8.40;;;3.45;;
41323;SDS011;27073;51.128;4.220;2023-03-11T00:40:19;10.13;;;3.33;;
41323;SDS011;27073;51.128;4.220;2023-03-11T00:42:46;7.88;;;2.72;;
41323;SDS011;27073;51.128;4.220;2023-03-11T00:45:13;9.98;;;2.80;;
41323;SDS011;27073;51.128;4.220;2023-03-11T00:47:39;9.73;;;3.60;;
41323;SDS011;27073;51.128;4.220;2023-03-11T00:50:05;12.48;;;3.25;;
41323;SDS011;27073;51.128;4.220;2023-03-11T00:52:33;8.50;;;2.83;;
41323;SDS011;27073;51.128;4.220;2023-03-11T00:54:59;11.57;;;3.10;;
41323;SDS011;27073;51.128;4.220;2023-03-11T00:57:26;12.30;;;3.13;;
41323;SDS011;27073;51.128;4.220;2023-03-11T00:59:54;9.75;;;2.65;;
41323;SDS011;27073;51.128;4.220;2023-03-11T01:02:20;7.97;;;2.83;;
41323;SDS011;27073;51.128;4.220;2023-03-11T01:04:47;11.23;;;2.80;;
41323;SDS011;27073;51.128;4.220;2023-03-11T01:07:17;13.73;;;4.15;;
41323;SDS011;27073;51.128;4.220;2023-03-11T01:09:42;9.40;;;2.75;;
41323;SDS011;27073;51.128;4.220;2023-03-11T01:12:08;13.55;;;2.95;;
41323;SDS011;27073;51.128;4.220;2023-03-11T01:14:34;7.22;;;2.55;;
41323;SDS011;27073;51.128;4.220;2023-03-11T01:16:59;11.38;;;2.67;;
41323;SDS011;27073;51.128;4.220;2023-03-11T01:19:25;10.25;;;2.60;;
41323;SDS011;27073;51.128;4.220;2023-03-11T01:21:52;11.52;;;2.58;;
41323;SDS011;27073;51.128;4.220;2023-03-11T01:24:18;17.67;;;3.40;;
41323;SDS011;27073;51.128;4.220;2023-03-11T01:26:43;11.45;;;3.22;;
41323;SDS011;27073;51.128;4.220;2023-03-11T01:29:09;11.68;;;2.75;;
41323;SDS011;27073;51.128;4.220;2023-03-11T01:31:35;6.85;;;2.00;;
41323;SDS011;27073;51.128;4.220;2023-03-11T01:34:01;11.95;;;2.70;;
41323;SDS011;27073;51.128;4.220;2023-03-11T01:36:26;12.35;;;2.67;;
41323;SDS011;27073;51.128;4.220;2023-03-11T01:38:52;9.40;;;2.60;;
41323;SDS011;27073;51.128;4.220;2023-03-11T01:41:18;9.88;;;2.65;;
41323;SDS011;27073;51.128;4.220;2023-03-11T01:49:03;9.70;;;3.17;;
41323;SDS011;27073;51.128;4.220;2023-03-11T01:51:32;11.32;;;3.78;;
41323;SDS011;27073;51.128;4.220;2023-03-11T01:54:06;9.48;;;3.22;;
41323;SDS011;27073;51.128;4.220;2023-03-11T01:56:40;8.77;;;3.63;;
41323;SDS011;27073;51.128;4.220;2023-03-11T01:59:09;8.95;;;3.00;;
41323;SDS011;27073;51.128;4.220;2023-03-11T02:01:40;10.32;;;3.15;;
41323;SDS011;27073;51.128;4.220;2023-03-11T02:04:14;11.73;;;3.50;;
41323;SDS011;27073;51.128;4.220;2023-03-11T02:06:40;11.75;;;3.50;;
41323;SDS011;27073;51.128;4.220;2023-03-11T02:09:06;11.43;;;3.83;;
41323;SDS011;27073;51.128;4.220;2023-03-11T02:11:33;9.65;;;2.95;;
41323;SDS011;27073;51.128;4.220;2023-03-11T02:14:00;7.78;;;2.97;;
41323;SDS011;27073;51.128;4.220;2023-03-11T02:16:28;8.07;;;3.00;;
41323;SDS011;27073;51.128;4.220;2023-03-11T02:18:55;10.68;;;3.50;;
41323;SDS011;27073;51.128;4.220;2023-03-11T02:21:25;11.60;;;3.33;;
41323;SDS011;27073;51.128;4.220;2023-03-11T02:24:16;8.63;;;3.42;;
41323;SDS011;27073;51.128;4.220;2023-03-11T02:29:29;7.35;;;3.40;;
41323;SDS011;27073;51.128;4.220;2023-03-11T02:31:58;12.32;;;3.25;;
41323;SDS011;27073;51.128;4.220;2023-03-11T02:34:28;11.43;;;3.10;;
41323;SDS011;27073;51.128;4.220;2023-03-11T02:36:59;10.63;;;3.40;;
41323;SDS011;27073;51.128;4.220;2023-03-11T02:41:54;11.90;;;4.05;;
41323;SDS011;27073;51.128;4.220;2023-03-11T02:44:20;7.32;;;3.20;;
41323;SDS011;27073;51.128;4.220;2023-03-11T02:46:46;11.52;;;3.30;;
41323;SDS011;27073;51.128;4.220;2023-03-11T02:49:13;10.45;;;2.92;;
41323;SDS011;27073;51.128;4.220;2023-03-11T02:51:39;9.18;;;4.15;;
41323;SDS011;27073;51.128;4.220;2023-03-11T02:54:05;11.20;;;4.03;;
41323;SDS011;27073;51.128;4.220;2023-03-11T02:56:32;9.32;;;3.53;;
41323;SDS011;27073;51.128;4.220;2023-03-11T02:58:58;12.23;;;3.63;;
41323;SDS011;27073;51.128;4.220;2023-03-11T03:01:24;11.15;;;4.78;;
41323;SDS011;27073;51.128;4.220;2023-03-11T03:03:50;9.25;;;3.25;;
41323;SDS011;27073;51.128;4.220;2023-03-11T03:06:15;12.75;;;3.30;;
41323;SDS011;27073;51.128;4.220;2023-03-11T03:08:41;8.63;;;3.75;;
41323;SDS011;27073;51.128;4.220;2023-03-11T03:11:07;8.82;;;3.05;;
41323;SDS011;27073;51.128;4.220;2023-03-11T03:13:33;8.52;;;3.65;;
41323;SDS011;27073;51.128;4.220;2023-03-11T03:16:00;8.50;;;3.75;;
41323;SDS011;27073;51.128;4.220;2023-03-11T03:18:26;9.52;;;3.50;;
41323;SDS011;27073;51.128;4.220;2023-03-11T03:20:52;10.85;;;4.30;;
41323;SDS011;27073;51.128;4.220;2023-03-11T03:23:18;15.15;;;3.80;;
41323;SDS011;27073;51.128;4.220;2023-03-11T03:25:45;12.10;;;3.95;;
41323;SDS011;27073;51.128;4.220;2023-03-11T03:28:11;8.05;;;3.55;;
41323;SDS011;27073;51.128;4.220;2023-03-11T03:30:41;9.90;;;4.45;;
41323;SDS011;27073;51.128;4.220;2023-03-11T03:33:08;11.43;;;4.20;;
41323;SDS011;27073;51.128;4.220;2023-03-11T03:35:34;11.63;;;4.25;;
41323;SDS011;27073;51.128;4.220;2023-03-11T03:38:04;13.40;;;3.97;;
41323;SDS011;27073;51.128;4.220;2023-03-11T03:40:30;7.85;;;3.53;;
41323;SDS011;27073;51.128;4.220;2023-03-11T03:42:58;11.32;;;3.55;;
41323;SDS011;27073;51.128;4.220;2023-03-11T03:45:26;13.50;;;4.57;;
41323;SDS011;27073;51.128;4.220;2023-03-11T03:47:52;11.85;;;3.92;;
41323;SDS011;27073;51.128;4.220;2023-03-11T03:50:20;7.60;;;3.50;;
41323;SDS011;27073;51.128;4.220;2023-03-11T03:52:47;9.20;;;4.20;;
41323;SDS011;27073;51.128;4.220;2023-03-11T03:55:13;11.07;;;4.22;;
41323;SDS011;27073;51.128;4.220;2023-03-11T03:57:39;10.38;;;4.25;;
41323;SDS011;27073;51.128;4.220;2023-03-11T04:00:08;11.60;;;4.90;;
41323;SDS011;27073;51.128;4.220;2023-03-11T04:02:39;12.13;;;4.63;;
41323;SDS011;27073;51.128;4.220;2023-03-11T04:05:07;7.93;;;4.15;;
41323;SDS011;27073;51.128;4.220;2023-03-11T04:07:34;10.73;;;4.15;;
41323;SDS011;27073;51.128;4.220;2023-03-11T04:10:03;10.50;;;4.40;;
41323;SDS011;27073;51.128;4.220;2023-03-11T04:12:30;8.90;;;4.72;;
41323;SDS011;27073;51.128;4.220;2023-03-11T04:14:56;11.32;;;4.43;;
41323;SDS011;27073;51.128;4.220;2023-03-11T04:17:22;9.02;;;4.55;;
41323;SDS011;27073;51.128;4.220;2023-03-11T04:19:49;9.10;;;4.28;;
41323;SDS011;27073;51.128;4.220;2023-03-11T04:22:15;8.32;;;3.53;;
41323;SDS011;27073;51.128;4.220;2023-03-11T04:24:41;12.85;;;4.53;;
41323;SDS011;27073;51.128;4.220;2023-03-11T04:27:07;8.30;;;4.03;;
41323;SDS011;27073;51.128;4.220;2023-03-11T04:29:33;9.38;;;4.53;;
41323;SDS011;27073;51.128;4.220;2023-03-11T04:32:00;10.88;;;4.45;;
41323;SDS011;27073;51.128;4.220;2023-03-11T04:34:26;10.13;;;4.50;;
41323;SDS011;27073;51.128;4.220;2023-03-11T04:36:53;9.38;;;4.25;;
41323;SDS011;27073;51.128;4.220;2023-03-11T04:39:23;9.32;;;4.20;;
41323;SDS011;27073;51.128;4.220;2023-03-11T04:41:49;8.68;;;3.72;;
41323;SDS011;27073;51.128;4.220;2023-03-11T04:44:19;8.48;;;3.45;;
41323;SDS011;27073;51.128;4.220;2023-03-11T04:46:45;10.40;;;4.28;;
41323;SDS011;27073;51.128;4.220;2023-03-11T04:49:11;11.52;;;3.38;;
41323;SDS011;27073;51.128;4.220;2023-03-11T04:51:36;8.27;;;3.78;;
41323;SDS011;27073;51.128;4.220;2023-03-11T04:54:03;10.00;;;3.53;;
41323;SDS011;27073;51.128;4.220;2023-03-11T04:56:29;7.78;;;3.33;;
41323;SDS011;27073;51.128;4.220;2023-03-11T04:58:56;8.65;;;3.50;;
41323;SDS011;27073;51.128;4.220;2023-03-11T05:01:23;8.98;;;3.45;;
41323;SDS011;27073;51.128;4.220;2023-03-11T05:03:49;10.77;;;3.88;;
41323;SDS011;27073;51.128;4.220;2023-03-11T05:06:15;17.52;;;4.97;;
41323;SDS011;27073;51.128;4.220;2023-03-11T05:08:41;6.90;;;3.85;;
41323;SDS011;27073;51.128;4.220;2023-03-11T05:11:07;9.05;;;4.15;;
41323;SDS011;27073;51.128;4.220;2023-03-11T05:13:33;12.95;;;6.00;;
41323;SDS011;27073;51.128;4.220;2023-03-11T05:15:59;18.45;;;7.03;;
41323;SDS011;27073;51.128;4.220;2023-03-11T05:18:25;11.60;;;4.80;;
41323;SDS011;27073;51.128;4.220;2023-03-11T05:20:50;11.15;;;4.60;;
41323;SDS011;27073;51.128;4.220;2023-03-11T05:23:21;10.30;;;4.03;;
41323;SDS011;27073;51.128;4.220;2023-03-11T05:25:46;9.68;;;4.80;;
41323;SDS011;27073;51.128;4.220;2023-03-11T05:28:12;9.48;;;4.53;;
41323;SDS011;27073;51.128;4.220;2023-03-11T05:30:44;10.68;;;4.57;;
41323;SDS011;27073;51.128;4.220;2023-03-11T05:33:11;7.45;;;3.78;;
41323;SDS011;27073;51.128;4.220;2023-03-11T05:35:37;8.50;;;3.95;;
41323;SDS011;27073;51.128;4.220;2023-03-11T05:38:04;8.32;;;3.78;;
41323;SDS011;27073;51.128;4.220;2023-03-11T05:40:29;16.58;;;3.95;;
41323;SDS011;27073;51.128;4.220;2023-03-11T05:42:55;12.23;;;4.05;;
41323;SDS011;27073;51.128;4.220;2023-03-11T05:45:21;9.32;;;4.35;;
41323;SDS011;27073;51.128;4.220;2023-03-11T05:47:50;9.18;;;4.00;;
41323;SDS011;27073;51.128;4.220;2023-03-11T05:50:17;9.50;;;4.60;;
41323;SDS011;27073;51.128;4.220;2023-03-11T05:52:45;12.13;;;4.13;;
41323;SDS011;27073;51.128;4.220;2023-03-11T05:55:10;10.07;;;4.15;;
41323;SDS011;27073;51.128;4.220;2023-03-11T05:57:39;9.93;;;4.30;;
41323;SDS011;27073;51.128;4.220;2023-03-11T06:00:05;8.05;;;4.18;;
41323;SDS011;27073;51.128;4.220;2023-03-11T06:02:39;13.10;;;4.38;;
41323;SDS011;27073;51.128;4.220;2023-03-11T06:05:07;10.38;;;3.40;;
41323;SDS011;27073;51.128;4.220;2023-03-11T06:07:34;13.07;;;4.78;;
41323;SDS011;27073;51.128;4.220;2023-03-11T06:10:01;10.05;;;4.07;;
41323;SDS011;27073;51.128;4.220;2023-03-11T06:12:29;11.38;;;4.22;;
41323;SDS011;27073;51.128;4.220;2023-03-11T06:17:37;7.07;;;3.55;;
41323;SDS011;27073;51.128;4.220;2023-03-11T06:20:03;6.38;;;4.50;;
41323;SDS011;27073;51.128;4.220;2023-03-11T06:22:30;11.23;;;4.75;;
41323;SDS011;27073;51.128;4.220;2023-03-11T06:24:56;9.60;;;5.05;;
41323;SDS011;27073;51.128;4.220;2023-03-11T06:27:22;12.50;;;5.18;;
41323;SDS011;27073;51.128;4.220;2023-03-11T06:29:52;13.18;;;4.93;;
41323;SDS011;27073;51.128;4.220;2023-03-11T06:32:20;9.93;;;4.45;;
41323;SDS011;27073;51.128;4.220;2023-03-11T06:34:48;8.55;;;5.22;;
41323;SDS011;27073;51.128;4.220;2023-03-11T06:37:15;12.15;;;4.78;;
41323;SDS011;27073;51.128;4.220;2023-03-11T06:39:42;12.00;;;4.57;;
41323;SDS011;27073;51.128;4.220;2023-03-11T06:42:11;9.02;;;4.65;;
41323;SDS011;27073;51.128;4.220;2023-03-11T06:44:38;10.52;;;5.07;;
41323;SDS011;27073;51.128;4.220;2023-03-11T06:47:04;12.02;;;4.95;;
41323;SDS011;27073;51.128;4.220;2023-03-11T06:49:30;10.15;;;4.50;;
41323;SDS011;27073;51.128;4.220;2023-03-11T06:51:56;9.07;;;4.03;;
41323;SDS011;27073;51.128;4.220;2023-03-11T06:54:22;7.03;;;4.00;;
41323;SDS011;27073;51.128;4.220;2023-03-11T06:56:48;9.65;;;4.53;;
41323;SDS011;27073;51.128;4.220;2023-03-11T06:59:14;9.80;;;4.90;;
41323;SDS011;27073;51.128;4.220;2023-03-11T07:01:40;10.05;;;4.35;;
41323;SDS011;27073;51.128;4.220;2023-03-11T07:04:08;9.50;;;5.15;;
41323;SDS011;27073;51.128;4.220;2023-03-11T07:06:36;10.07;;;4.50;;
41323;SDS011;27073;51.128;4.220;2023-03-11T07:09:07;11.05;;;4.93;;
41323;SDS011;27073;51.128;4.220;2023-03-11T07:11:36;9.25;;;4.63;;
41323;SDS011;27073;51.128;4.220;2023-03-11T07:14:07;10.93;;;5.13;;
41323;SDS011;27073;51.128;4.220;2023-03-11T07:16:37;7.50;;;4.50;;
41323;SDS011;27073;51.128;4.220;2023-03-11T07:19:09;11.77;;;5.47;;
41323;SDS011;27073;51.128;4.220;2023-03-11T07:21:36;8.38;;;4.50;;
41323;SDS011;27073;51.128;4.220;2023-03-11T07:24:03;14.13;;;4.70;;
41323;SDS011;27073;51.128;4.220;2023-03-11T07:26:30;8.63;;;4.45;;
41323;SDS011;27073;51.128;4.220;2023-03-11T07:28:58;8.23;;;4.82;;
41323;SDS011;27073;51.128;4.220;2023-03-11T07:31:25;12.38;;;4.85;;
41323;SDS011;27073;51.128;4.220;2023-03-11T07:33:53;8.70;;;4.88;;
41323;SDS011;27073;51.128;4.220;2023-03-11T07:36:21;8.77;;;4.65;;
41323;SDS011;27073;51.128;4.220;2023-03-11T07:38:48;11.07;;;4.82;;
41323;SDS011;27073;51.128;4.220;2023-03-11T07:41:19;10.75;;;5.15;;
41323;SDS011;27073;51.128;4.220;2023-03-11T07:43:45;10.50;;;4.75;;
41323;SDS011;27073;51.128;4.220;2023-03-11T07:46:12;9.35;;;4.75;;
41323;SDS011;27073;51.128;4.220;2023-03-11T07:48:43;9.02;;;4.70;;
41323;SDS011;27073;51.128;4.220;2023-03-11T07:51:11;7.78;;;4.15;;
41323;SDS011;27073;51.128;4.220;2023-03-11T07:53:38;11.15;;;6.03;;
41323;SDS011;27073;51.128;4.220;2023-03-11T07:56:05;10.18;;;5.15;;
41323;SDS011;27073;51.128;4.220;2023-03-11T07:58:32;10.13;;;4.53;;
41323;SDS011;27073;51.128;4.220;2023-03-11T08:01:04;9.13;;;4.80;;
41323;SDS011;27073;51.128;4.220;2023-03-11T08:03:35;11.85;;;4.65;;
41323;SDS011;27073;51.128;4.220;2023-03-11T08:06:02;12.18;;;5.43;;
41323;SDS011;27073;51.128;4.220;2023-03-11T08:08:35;12.05;;;5.53;;
41323;SDS011;27073;51.128;4.220;2023-03-11T08:11:02;10.02;;;5.95;;
41323;SDS011;27073;51.128;4.220;2023-03-11T08:13:28;11.50;;;5.82;;
41323;SDS011;27073;51.128;4.220;2023-03-11T08:15:54;10.25;;;5.40;;
41323;SDS011;27073;51.128;4.220;2023-03-11T08:18:20;11.38;;;5.97;;
41323;SDS011;27073;51.128;4.220;2023-03-11T08:20:45;11.68;;;5.15;;
41323;SDS011;27073;51.128;4.220;2023-03-11T08:23:11;10.57;;;5.78;;
41323;SDS011;27073;51.128;4.220;2023-03-11T08:25:38;13.25;;;5.82;;
41323;SDS011;27073;51.128;4.220;2023-03-11T08:28:04;15.50;;;5.57;;
41323;SDS011;27073;51.128;4.220;2023-03-11T08:30:32;17.20;;;6.13;;
41323;SDS011;27073;51.128;4.220;2023-03-11T08:32:58;10.77;;;5.30;;
41323;SDS011;27073;51.128;4.220;2023-03-11T08:35:24;10.68;;;5.28;;
41323;SDS011;27073;51.128;4.220;2023-03-11T08:37:51;12.25;;;5.45;;
41323;SDS011;27073;51.128;4.220;2023-03-11T08:40:17;11.48;;;4.72;;
41323;SDS011;27073;51.128;4.220;2023-03-11T08:42:43;7.88;;;4.40;;
41323;SDS011;27073;51.128;4.220;2023-03-11T08:45:10;12.57;;;5.60;;
41323;SDS011;27073;51.128;4.220;2023-03-11T08:47:37;10.90;;;3.85;;
41323;SDS011;27073;51.128;4.220;2023-03-11T08:50:04;12.18;;;4.30;;
41323;SDS011;27073;51.128;4.220;2023-03-11T08:52:32;9.80;;;4.38;;
41323;SDS011;27073;51.128;4.220;2023-03-11T08:54:58;10.15;;;2.92;;
41323;SDS011;27073;51.128;4.220;2023-03-11T08:57:24;11.88;;;3.65;;
41323;SDS011;27073;51.128;4.220;2023-03-11T08:59:50;6.38;;;2.60;;
41323;SDS011;27073;51.128;4.220;2023-03-11T09:02:15;6.97;;;1.80;;
41323;SDS011;27073;51.128;4.220;2023-03-11T09:04:41;9.40;;;2.88;;
41323;SDS011;27073;51.128;4.220;2023-03-11T09:07:07;7.40;;;3.20;;
41323;SDS011;27073;51.128;4.220;2023-03-11T09:09:35;8.43;;;2.92;;
41323;SDS011;27073;51.128;4.220;2023-03-11T09:12:01;12.30;;;2.88;;
41323;SDS011;27073;51.128;4.220;2023-03-11T09:14:26;6.53;;;2.65;;
41323;SDS011;27073;51.128;4.220;2023-03-11T09:16:52;7.35;;;2.20;;
41323;SDS011;27073;51.128;4.220;2023-03-11T09:19:18;4.88;;;2.25;;
41323;SDS011;27073;51.128;4.220;2023-03-11T09:21:44;7.30;;;1.50;;
41323;SDS011;27073;51.128;4.220;2023-03-11T09:24:09;6.90;;;1.63;;
41323;SDS011;27073;51.128;4.220;2023-03-11T09:26:35;8.23;;;1.67;;
41323;SDS011;27073;51.128;4.220;2023-03-11T09:29:01;5.93;;;1.75;;
41323;SDS011;27073;51.128;4.220;2023-03-11T09:31:26;9.93;;;2.42;;
41323;SDS011;27073;51.128;4.220;2023-03-11T09:33:52;4.25;;;0.90;;
41323;SDS011;27073;51.128;4.220;2023-03-11T09:36:19;4.05;;;0.70;;
41323;SDS011;27073;51.128;4.220;2023-03-11T09:38:46;9.02;;;1.65;;
41323;SDS011;27073;51.128;4.220;2023-03-11T09:52:00;6.43;;;1.00;;
41323;SDS011;27073;51.128;4.220;2023-03-11T09:54:48;9.23;;;1.65;;
41323;SDS011;27073;51.128;4.220;2023-03-11T09:57:18;6.20;;;2.88;;
41323;SDS011;27073;51.128;4.220;2023-03-11T09:59:52;7.80;;;1.48;;
41323;SDS011;27073;51.128;4.220;2023-03-11T10:02:20;3.05;;;0.98;;
41323;SDS011;27073;51.128;4.220;2023-03-11T10:04:53;11.82;;;2.03;;
41323;SDS011;27073;51.128;4.220;2023-03-11T10:07:23;5.55;;;1.60;;
41323;SDS011;27073;51.128;4.220;2023-03-11T10:09:57;9.95;;;2.00;;
41323;SDS011;27073;51.128;4.220;2023-03-11T10:26:35;9.10;;;3.00;;
41323;SDS011;27073;51.128;4.220;2023-03-11T10:29:14;7.40;;;2.00;;
41323;SDS011;27073;51.128;4.220;2023-03-11T10:32:05;18.75;;;9.80;;
41323;SDS011;27073;51.128;4.220;2023-03-11T10:35:00;6.38;;;1.85;;
41323;SDS011;27073;51.128;4.220;2023-03-11T10:37:38;8.63;;;1.88;;
41323;SDS011;27073;51.128;4.220;2023-03-11T10:40:13;4.97;;;1.05;;
41323;SDS011;27073;51.128;4.220;2023-03-11T10:42:48;4.30;;;1.15;;
41323;SDS011;27073;51.128;4.220;2023-03-11T10:45:16;5.38;;;1.00;;
41323;SDS011;27073;51.128;4.220;2023-03-11T10:47:45;7.80;;;1.88;;
41323;SDS011;27073;51.128;4.220;2023-03-11T10:50:12;6.35;;;1.27;;
41323;SDS011;27073;51.128;4.220;2023-03-11T10:53:15;4.70;;;1.30;;
41323;SDS011;27073;51.128;4.220;2023-03-11T10:55:35;5.50;;;1.70;;
41323;SDS011;27073;51.128;4.220;2023-03-11T10:58:11;6.97;;;1.58;;
41323;SDS011;27073;51.128;4.220;2023-03-11T11:00:40;6.72;;;1.73;;
41323;SDS011;27073;51.128;4.220;2023-03-11T11:03:11;7.68;;;1.40;;
41323;SDS011;27073;51.128;4.220;2023-03-11T11:05:44;6.78;;;1.27;;
41323;SDS011;27073;51.128;4.220;2023-03-11T11:08:29;6.72;;;1.50;;
41323;SDS011;27073;51.128;4.220;2023-03-11T11:10:57;3.95;;;1.00;;
41323;SDS011;27073;51.128;4.220;2023-03-11T11:13:27;7.63;;;1.75;;
41323;SDS011;27073;51.128;4.220;2023-03-11T11:19:24;7.90;;;1.65;;
41323;SDS011;27073;51.128;4.220;2023-03-11T11:21:49;8.73;;;1.55;;
41323;SDS011;27073;51.128;4.220;2023-03-11T11:24:23;5.85;;;2.08;;
41323;SDS011;27073;51.128;4.220;2023-03-11T11:27:04;6.47;;;1.38;;
41323;SDS011;27073;51.128;4.220;2023-03-11T11:29:39;5.95;;;1.50;;
41323;SDS011;27073;51.128;4.220;2023-03-11T11:34:41;7.32;;;1.23;;
41323;SDS011;27073;51.128;4.220;2023-03-11T11:37:08;7.95;;;1.48;;
41323;SDS011;27073;51.128;4.220;2023-03-11T11:39:47;6.72;;;2.00;;
41323;SDS011;27073;51.128;4.220;2023-03-11T11:42:23;6.63;;;1.45;;
41323;SDS011;27073;51.128;4.220;2023-03-11T11:47:55;6.50;;;1.05;;
41323;SDS011;27073;51.128;4.220;2023-03-11T11:50:33;3.08;;;1.00;;
41323;SDS011;27073;51.128;4.220;2023-03-11T11:55:57;8.25;;;1.40;;
41323;SDS011;27073;51.128;4.220;2023-03-11T11:58:23;6.32;;;1.17;;
41323;SDS011;27073;51.128;4.220;2023-03-11T12:01:12;8.05;;;1.77;;
41323;SDS011;27073;51.128;4.220;2023-03-11T12:03:51;5.88;;;0.95;;
41323;SDS011;27073;51.128;4.220;2023-03-11T12:06:34;5.68;;;1.35;;
41323;SDS011;27073;51.128;4.220;2023-03-11T12:15:17;14.02;;;2.15;;
41323;SDS011;27073;51.128;4.220;2023-03-11T12:17:18;5.95;;;1.50;;
41323;SDS011;27073;51.128;4.220;2023-03-11T12:19:56;8.50;;;1.93;;
41323;SDS011;27073;51.128;4.220;2023-03-11T12:25:18;5.43;;;1.17;;
41323;SDS011;27073;51.128;4.220;2023-03-11T12:27:58;7.00;;;0.87;;
41323;SDS011;27073;51.128;4.220;2023-03-11T12:30:41;4.65;;;1.15;;
41323;SDS011;27073;51.128;4.220;2023-03-11T12:35:58;5.00;;;1.45;;
41323;SDS011;27073;51.128;4.220;2023-03-11T12:40:59;7.47;;;1.35;;
41323;SDS011;27073;51.128;4.220;2023-03-11T12:45:59;7.80;;;1.40;;
41323;SDS011;27073;51.128;4.220;2023-03-11T12:53:50;7.63;;;1.30;;
41323;SDS011;27073;51.128;4.220;2023-03-11T13:07:36;5.35;;;1.40;;
41323;SDS011;27073;51.128;4.220;2023-03-11T13:12:48;5.68;;;2.00;;
41323;SDS011;27073;51.128;4.220;2023-03-11T13:17:59;4.05;;;1.27;;
41323;SDS011;27073;51.128;4.220;2023-03-11T13:23:08;5.78;;;1.30;;
41323;SDS011;27073;51.128;4.220;2023-03-11T13:25:40;7.00;;;1.65;;
41323;SDS011;27073;51.128;4.220;2023-03-11T13:36:15;4.78;;;1.30;;
41323;SDS011;27073;51.128;4.220;2023-03-11T13:41:44;6.28;;;1.45;;
41323;SDS011;27073;51.128;4.220;2023-03-11T13:44:19;6.05;;;1.88;;
41323;SDS011;27073;51.128;4.220;2023-03-11T13:47:28;4.93;;;1.33;;
41323;SDS011;27073;51.128;4.220;2023-03-11T13:49:51;5.40;;;2.00;;
41323;SDS011;27073;51.128;4.220;2023-03-11T13:52:33;6.85;;;1.58;;
41323;SDS011;27073;51.128;4.220;2023-03-11T13:55:36;6.05;;;1.20;;
41323;SDS011;27073;51.128;4.220;2023-03-11T13:57:55;4.03;;;1.38;;
41323;SDS011;27073;51.128;4.220;2023-03-11T14:00:25;4.13;;;1.30;;
41323;SDS011;27073;51.128;4.220;2023-03-11T14:02:54;5.38;;;1.05;;
41323;SDS011;27073;51.128;4.220;2023-03-11T14:05:25;6.40;;;1.55;;
41323;SDS011;27073;51.128;4.220;2023-03-11T14:07:54;6.78;;;1.30;;
41323;SDS011;27073;51.128;4.220;2023-03-11T14:10:34;7.00;;;1.85;;
41323;SDS011;27073;51.128;4.220;2023-03-11T14:13:16;7.63;;;1.70;;
41323;SDS011;27073;51.128;4.220;2023-03-11T14:15:45;6.65;;;1.00;;
41323;SDS011;27073;51.128;4.220;2023-03-11T14:18:34;5.53;;;1.02;;
41323;SDS011;27073;51.128;4.220;2023-03-11T14:21:02;4.78;;;1.88;;
41323;SDS011;27073;51.128;4.220;2023-03-11T14:23:39;5.40;;;0.95;;
41323;SDS011;27073;51.128;4.220;2023-03-11T14:26:17;7.90;;;1.80;;
41323;SDS011;27073;51.128;4.220;2023-03-11T14:28:46;5.47;;;2.03;;
41323;SDS011;27073;51.128;4.220;2023-03-11T14:31:31;5.97;;;1.20;;
41323;SDS011;27073;51.128;4.220;2023-03-11T14:34:03;5.07;;;0.80;;
41323;SDS011;27073;51.128;4.220;2023-03-11T14:36:41;6.88;;;1.67;;
41323;SDS011;27073;51.128;4.220;2023-03-11T14:41:55;3.25;;;1.08;;
41323;SDS011;27073;51.128;4.220;2023-03-11T14:44:26;4.38;;;1.15;;
41323;SDS011;27073;51.128;4.220;2023-03-11T14:46:56;10.23;;;4.13;;
41323;SDS011;27073;51.128;4.220;2023-03-11T14:49:29;5.78;;;1.30;;
41323;SDS011;27073;51.128;4.220;2023-03-11T14:51:58;6.00;;;1.17;;
41323;SDS011;27073;51.128;4.220;2023-03-11T14:54:31;6.68;;;1.77;;
41323;SDS011;27073;51.128;4.220;2023-03-11T14:57:02;5.22;;;1.67;;
41323;SDS011;27073;51.128;4.220;2023-03-11T14:59:31;6.70;;;1.23;;
41323;SDS011;27073;51.128;4.220;2023-03-11T15:04:54;5.88;;;1.67;;
41323;SDS011;27073;51.128;4.220;2023-03-11T15:07:21;5.47;;;1.10;;
41323;SDS011;27073;51.128;4.220;2023-03-11T15:09:47;9.32;;;1.27;;
41323;SDS011;27073;51.128;4.220;2023-03-11T15:12:30;4.10;;;1.00;;
41323;SDS011;27073;51.128;4.220;2023-03-11T15:14:57;4.57;;;1.25;;
41323;SDS011;27073;51.128;4.220;2023-03-11T15:17:24;3.97;;;1.02;;
41323;SDS011;27073;51.128;4.220;2023-03-11T15:19:53;3.72;;;0.75;;
41323;SDS011;27073;51.128;4.220;2023-03-11T15:24:53;3.45;;;1.00;;
41323;SDS011;27073;51.128;4.220;2023-03-11T15:30:00;4.53;;;0.95;;
41323;SDS011;27073;51.128;4.220;2023-03-11T15:35:00;3.63;;;1.27;;
41323;SDS011;27073;51.128;4.220;2023-03-11T15:37:28;4.22;;;1.02;;
41323;SDS011;27073;51.128;4.220;2023-03-11T15:39:55;9.07;;;1.15;;
41323;SDS011;27073;51.128;4.220;2023-03-11T15:42:35;4.95;;;1.80;;
41323;SDS011;27073;51.128;4.220;2023-03-11T15:45:02;7.63;;;0.95;;
41323;SDS011;27073;51.128;4.220;2023-03-11T15:47:37;5.80;;;1.48;;
41323;SDS011;27073;51.128;4.220;2023-03-11T15:52:49;5.53;;;1.02;;
41323;SDS011;27073;51.128;4.220;2023-03-11T15:55:15;4.03;;;1.10;;
41323;SDS011;27073;51.128;4.220;2023-03-11T15:57:43;5.05;;;1.30;;
41323;SDS011;27073;51.128;4.220;2023-03-11T16:00:21;5.60;;;1.13;;
41323;SDS011;27073;51.128;4.220;2023-03-11T16:02:48;4.05;;;1.15;;
41323;SDS011;27073;51.128;4.220;2023-03-11T16:05:18;4.90;;;1.10;;
41323;SDS011;27073;51.128;4.220;2023-03-11T16:07:48;7.40;;;2.35;;
41323;SDS011;27073;51.128;4.220;2023-03-11T16:10:15;10.55;;;3.17;;
41323;SDS011;27073;51.128;4.220;2023-03-11T16:12:42;8.32;;;1.95;;
41323;SDS011;27073;51.128;4.220;2023-03-11T16:15:14;5.82;;;1.67;;
41323;SDS011;27073;51.128;4.220;2023-03-11T16:17:56;5.85;;;1.80;;
41323;SDS011;27073;51.128;4.220;2023-03-11T16:22:55;4.80;;;1.63;;
41323;SDS011;27073;51.128;4.220;2023-03-11T16:25:32;8.50;;;2.33;;
41323;SDS011;27073;51.128;4.220;2023-03-11T16:28:00;21.05;;;6.88;;
41323;SDS011;27073;51.128;4.220;2023-03-11T16:30:28;9.95;;;4.28;;
41323;SDS011;27073;51.128;4.220;2023-03-11T16:33:05;9.25;;;2.20;;
41323;SDS011;27073;51.128;4.220;2023-03-11T16:35:32;4.75;;;1.50;;
41323;SDS011;27073;51.128;4.220;2023-03-11T16:37:57;5.88;;;1.52;;
41323;SDS011;27073;51.128;4.220;2023-03-11T16:40:24;6.30;;;1.88;;
41323;SDS011;27073;51.128;4.220;2023-03-11T16:42:59;4.22;;;1.20;;
41323;SDS011;27073;51.128;4.220;2023-03-11T16:45:32;5.35;;;1.15;;
41323;SDS011;27073;51.128;4.220;2023-03-11T16:47:58;3.75;;;0.88;;
41323;SDS011;27073;51.128;4.220;2023-03-11T16:50:25;6.80;;;1.48;;
41323;SDS011;27073;51.128;4.220;2023-03-11T16:52:52;3.40;;;1.20;;
41323;SDS011;27073;51.128;4.220;2023-03-11T16:55:19;3.75;;;1.13;;